createdAt,value
2019-05-26T00:00:36.953Z,13.11
2019-05-26T00:05:41.582Z,13.06
2019-05-26T00:10:46.124Z,13.04
2019-05-26T00:15:50.789Z,12.93
2019-05-26T00:20:55.470Z,12.85
2019-05-26T00:26:00.148Z,12.95
2019-05-26T00:31:04.853Z,12.89
2019-05-26T00:36:09.421Z,12.83
2019-05-26T00:41:14.166Z,12.76
2019-05-26T00:46:18.792Z,12.84
2019-05-26T00:51:23.329Z,12.66
2019-05-26T00:56:28.012Z,12.54
2019-05-26T01:01:32.637Z,12.60
2019-05-26T01:06:37.257Z,12.52
2019-05-26T01:11:41.739Z,12.45
2019-05-26T01:16:46.351Z,12.41
2019-05-26T01:21:50.971Z,12.38
2019-05-26T01:26:55.525Z,12.08
2019-05-26T01:32:00.160Z,12.11
2019-05-26T01:37:05.969Z,11.92
2019-05-26T01:42:10.588Z,11.96
2019-05-26T01:47:15.216Z,11.83
2019-05-26T01:52:19.771Z,11.79
2019-05-26T01:57:24.429Z,11.85
2019-05-26T02:02:28.919Z,11.67
2019-05-26T02:07:33.467Z,11.80
2019-05-26T02:12:38.163Z,11.73
2019-05-26T02:17:42.865Z,11.80
2019-05-26T02:22:47.622Z,11.81
2019-05-26T02:27:53.229Z,11.79
2019-05-26T02:32:57.794Z,11.76
2019-05-26T02:38:02.448Z,11.72
2019-05-26T02:43:07.190Z,11.64
2019-05-26T02:48:12.800Z,11.65
2019-05-26T02:53:17.366Z,11.73
2019-05-26T02:58:21.937Z,11.56
2019-05-26T03:03:26.562Z,11.35
2019-05-26T03:08:33.083Z,11.42
2019-05-26T03:13:39.890Z,11.44
2019-05-26T03:18:46.413Z,11.55
2019-05-26T03:23:53.681Z,11.67
2019-05-26T03:28:58.252Z,11.75
2019-05-26T03:34:02.799Z,11.94
2019-05-26T03:39:07.903Z,12.12
2019-05-26T03:44:12.490Z,12.25
2019-05-26T03:49:17.065Z,12.38
2019-05-26T03:54:21.650Z,12.97
2019-05-26T03:59:26.195Z,14.30
2019-05-26T04:04:30.834Z,17.58
2019-05-26T04:09:35.298Z,17.58
2019-05-26T04:14:39.782Z,18.84
2019-05-26T04:19:45.470Z,19.72
2019-05-26T04:24:50.048Z,20.94
2019-05-26T04:29:54.755Z,21.01
2019-05-26T04:34:59.306Z,20.54
2019-05-26T04:40:24.847Z,20.26
2019-05-26T04:45:12.142Z,22.02
2019-05-26T04:50:16.755Z,21.78
2019-05-26T04:55:21.224Z,22.48
2019-05-26T05:00:25.905Z,21.98
2019-05-26T05:05:30.615Z,23.08
2019-05-26T05:10:42.281Z,24.36
2019-05-26T05:15:41.438Z,25.48
2019-05-26T05:20:47.305Z,25.21
2019-05-26T05:25:51.872Z,25.62
2019-05-26T05:30:56.427Z,26.63
2019-05-26T05:36:01.056Z,26.51
2019-05-26T05:41:05.635Z,24.60
2019-05-26T05:46:10.355Z,24.46
2019-05-26T05:51:14.967Z,23.67
2019-05-26T05:56:19.552Z,24.78
2019-05-26T06:01:24.102Z,25.96
2019-05-26T06:06:28.734Z,24.88
2019-05-26T06:11:33.365Z,22.33
2019-05-26T06:16:37.928Z,24.86
2019-05-26T06:21:42.584Z,25.05
2019-05-26T06:26:47.151Z,25.66
2019-05-26T06:31:51.942Z,24.33
2019-05-26T06:36:56.712Z,25.84
2019-05-26T06:42:01.534Z,26.80
2019-05-26T06:47:06.177Z,28.80
2019-05-26T06:52:10.740Z,27.17
2019-05-26T06:57:16.140Z,26.45
2019-05-26T07:02:20.843Z,26.85
2019-05-26T07:07:25.394Z,27.92
2019-05-26T07:12:30.046Z,27.83
2019-05-26T07:17:34.663Z,28.49
2019-05-26T07:22:39.210Z,27.46
2019-05-26T07:27:43.842Z,29.43
2019-05-26T07:32:48.424Z,27.36
2019-05-26T07:37:53.158Z,28.24
2019-05-26T07:42:57.891Z,28.83
2019-05-26T07:48:02.447Z,29.03
2019-05-26T07:53:06.993Z,29.04
2019-05-26T07:58:12.399Z,26.94
2019-05-26T08:03:17.093Z,29.24
2019-05-26T08:08:21.648Z,29.98
2019-05-26T08:13:26.153Z,30.28
2019-05-26T08:18:30.794Z,30.07
2019-05-26T08:23:35.477Z,30.14
2019-05-26T08:28:40.029Z,30.75
2019-05-26T08:33:44.551Z,30.61
2019-05-26T08:38:49.210Z,28.95
2019-05-26T08:43:53.895Z,29.95
2019-05-26T08:48:58.533Z,30.34
2019-05-26T08:54:03.159Z,27.92
2019-05-26T08:59:07.719Z,27.90
2019-05-26T09:04:12.437Z,27.17
2019-05-26T09:09:17.016Z,29.90
2019-05-26T09:14:21.544Z,31.41
2019-05-26T09:19:26.263Z,30.16
2019-05-26T09:24:30.708Z,29.67
2019-05-26T09:29:35.322Z,30.38
2019-05-26T09:34:39.870Z,30.98
2019-05-26T09:39:44.416Z,30.82
2019-05-26T09:44:48.901Z,32.11
2019-05-26T09:49:53.470Z,32.20
2019-05-26T09:54:58.099Z,32.00
2019-05-26T10:00:07.322Z,33.13
2019-05-26T10:05:13.877Z,32.56
2019-05-26T10:10:18.705Z,33.05
2019-05-26T10:15:23.379Z,33.13
2019-05-26T10:20:28.064Z,36.66
2019-05-26T10:25:32.769Z,33.88
2019-05-26T10:30:37.415Z,32.23
2019-05-26T10:35:42.489Z,33.00
2019-05-26T10:40:47.230Z,30.97
2019-05-26T10:45:52.622Z,30.62
2019-05-26T10:50:57.160Z,30.67
2019-05-26T10:56:02.587Z,29.97
2019-05-26T11:01:07.198Z,27.52
2019-05-26T11:06:11.908Z,26.74
2019-05-26T11:11:16.463Z,26.52
2019-05-26T11:16:21.079Z,27.26
2019-05-26T11:21:25.628Z,26.96
2019-05-26T11:26:30.168Z,26.56
2019-05-26T11:31:34.925Z,27.14
2019-05-26T11:36:39.350Z,26.95
2019-05-26T11:41:43.988Z,25.99
2019-05-26T11:46:48.541Z,26.04
2019-05-26T11:51:53.040Z,26.63
2019-05-26T11:56:57.587Z,26.65
2019-05-26T12:02:02.130Z,26.87
2019-05-26T12:07:06.749Z,27.52
2019-05-26T12:12:11.416Z,27.63
2019-05-26T12:17:16.089Z,26.97
2019-05-26T12:22:20.699Z,26.83
2019-05-26T12:27:25.251Z,26.76
2019-05-26T12:32:30.701Z,27.18
2019-05-26T12:37:35.366Z,27.69
2019-05-26T12:42:39.962Z,27.71
2019-05-26T12:47:44.468Z,27.35
2019-05-26T12:52:49.180Z,26.78
2019-05-26T12:57:53.813Z,26.58
2019-05-26T13:02:58.466Z,26.17
2019-05-26T13:08:03.004Z,26.41
2019-05-26T13:13:07.529Z,26.72
2019-05-26T13:18:12.169Z,26.83
2019-05-26T13:23:17.353Z,27.41
2019-05-26T13:28:21.866Z,26.95
2019-05-26T13:33:26.373Z,26.65
2019-05-26T13:38:30.837Z,26.90
2019-05-26T13:43:35.378Z,26.69
2019-05-26T13:48:39.919Z,27.01
2019-05-26T13:53:44.632Z,27.29
2019-05-26T13:58:49.170Z,27.93
2019-05-26T14:03:53.726Z,27.90
2019-05-26T14:09:01.546Z,26.98
2019-05-26T14:14:04.847Z,27.65
2019-05-26T14:19:09.461Z,27.25
2019-05-26T14:24:14.181Z,26.94
2019-05-26T14:29:18.909Z,27.08
2019-05-26T14:34:23.431Z,26.91
2019-05-26T14:39:27.998Z,27.27
2019-05-26T14:44:32.577Z,27.29
2019-05-26T14:49:37.109Z,27.16
2019-05-26T14:54:41.583Z,26.91
2019-05-26T14:59:46.134Z,26.81
2019-05-26T15:04:50.746Z,26.68
2019-05-26T15:09:55.300Z,26.74
2019-05-26T15:14:59.920Z,27.52
2019-05-26T15:20:05.497Z,27.68
2019-05-26T15:25:10.669Z,27.41
2019-05-26T15:30:15.779Z,26.32
2019-05-26T15:35:20.482Z,26.12
2019-05-26T15:40:25.109Z,26.43
2019-05-26T15:45:29.716Z,26.17
2019-05-26T15:50:34.539Z,25.69
2019-05-26T15:55:40.281Z,25.43
2019-05-26T16:00:45.173Z,25.52
2019-05-26T16:05:49.797Z,25.60
2019-05-26T16:10:54.403Z,25.74
2019-05-26T16:16:01.218Z,26.04
2019-05-26T16:21:14.512Z,25.95
2019-05-26T16:26:13.393Z,25.91
2019-05-26T16:31:18.026Z,25.82
2019-05-26T16:36:22.632Z,25.79
2019-05-26T16:41:27.180Z,25.56
2019-05-26T16:46:31.771Z,25.69
2019-05-26T16:51:36.453Z,25.50
2019-05-26T16:56:40.997Z,25.34
2019-05-26T17:01:45.637Z,25.32
2019-05-26T17:06:50.290Z,25.28
2019-05-26T17:11:54.903Z,25.41
2019-05-26T17:17:13.579Z,25.00
2019-05-26T17:22:05.940Z,24.86
2019-05-26T17:27:10.522Z,24.31
2019-05-26T17:32:15.256Z,24.10
2019-05-26T17:37:19.927Z,23.92
2019-05-26T17:42:25.470Z,23.75
2019-05-26T17:47:31.014Z,23.59
2019-05-26T17:52:36.314Z,23.33
2019-05-26T17:57:40.874Z,23.21
2019-05-26T18:02:45.386Z,23.09
2019-05-26T18:07:50.090Z,22.98
2019-05-26T18:12:55.092Z,22.90
2019-05-26T18:17:59.656Z,22.80
2019-05-26T18:23:05.327Z,22.78
2019-05-26T18:28:09.960Z,22.66
2019-05-26T18:33:14.598Z,22.65
2019-05-26T18:38:19.212Z,22.63
2019-05-26T18:43:23.922Z,22.57
2019-05-26T18:48:28.477Z,22.46
2019-05-26T18:53:33.205Z,22.64
2019-05-26T18:58:37.763Z,22.63
2019-05-26T19:03:42.317Z,22.67
2019-05-26T19:08:46.995Z,22.66
2019-05-26T19:13:51.622Z,22.57
2019-05-26T19:18:56.148Z,22.43
2019-05-26T19:24:01.757Z,22.40
2019-05-26T19:29:06.458Z,22.34
2019-05-26T19:34:11.007Z,22.28
2019-05-26T19:39:15.492Z,22.25
2019-05-26T19:44:20.166Z,22.24
2019-05-26T19:49:24.745Z,22.25
2019-05-26T19:54:29.462Z,22.20
2019-05-26T19:59:34.851Z,22.07
2019-05-26T20:04:39.509Z,22.11
2019-05-26T20:09:44.691Z,21.87
2019-05-26T20:14:49.844Z,21.55
2019-05-26T20:19:54.360Z,21.36
2019-05-26T20:24:58.917Z,21.17
2019-05-26T20:30:04.601Z,20.91
2019-05-26T20:35:09.662Z,20.67
2019-05-26T20:40:15.302Z,20.60
2019-05-26T20:45:19.945Z,20.58
2019-05-26T20:50:29.335Z,20.64
2019-05-26T20:55:31.038Z,20.76
2019-05-26T21:00:35.604Z,20.86
2019-05-26T21:05:40.176Z,20.85
2019-05-26T21:10:44.827Z,20.75
2019-05-26T21:15:49.362Z,20.66
2019-05-26T21:20:53.955Z,20.54
2019-05-26T21:25:58.528Z,20.54
2019-05-26T21:31:03.247Z,20.54
2019-05-26T21:36:07.791Z,20.49
2019-05-26T21:41:12.458Z,20.33
2019-05-26T21:46:17.093Z,20.10
2019-05-26T21:51:21.660Z,20.07
2019-05-26T21:56:26.469Z,19.95
2019-05-26T22:01:31.176Z,19.90
2019-05-26T22:06:35.763Z,19.86
2019-05-26T22:11:40.383Z,19.79
2019-05-26T22:16:45.897Z,19.72
2019-05-26T22:21:50.733Z,19.69
2019-05-26T22:26:56.051Z,19.50
2019-05-26T22:32:00.755Z,19.40
2019-05-26T22:37:05.461Z,19.39
2019-05-26T22:42:10.168Z,19.35
2019-05-26T22:47:14.801Z,19.37
2019-05-26T22:52:19.416Z,19.07
2019-05-26T22:57:23.893Z,18.77
2019-05-26T23:02:28.499Z,18.67
2019-05-26T23:07:34.779Z,18.58
2019-05-26T23:12:39.254Z,18.51
2019-05-26T23:17:43.929Z,18.50
2019-05-26T23:22:48.506Z,18.44
2019-05-26T23:27:53.124Z,18.36
2019-05-26T23:32:57.697Z,18.34
2019-05-26T23:38:02.281Z,18.33
2019-05-26T23:43:08.368Z,18.24
2019-05-26T23:48:13.020Z,18.21
2019-05-26T23:53:17.582Z,18.18
2019-05-26T23:58:22.161Z,18.13
